Latest Weather Observations for Walpeup RS

IDV60801

Issued at 10:35 pm EDT Thursday 23 October 2014 (issued every 30 minutes, with the page automatically refreshed every 10 minutes)

About weather observations | Map of weather stations | Latest weather observations for VIC | Other Formats
Station Details ID: 076064 Name: WALPEUP RESEARCH Lat: -35.12 Lon: 142.00 Height: 105.0 m
Data from the previous 72 hours. | See also: Recent months at Walpeup RS
Date/Time
EDT
Temp
°C
App
Temp
°C
Dew
Point
Rel
Hum
%
Delta-T
°C
Wind Press
QNH
hPa
Press
MSL
hPa
Rain
since 9 am
mm
Dir
 
Spd
km/h
Gust
km/h
Spd
kts
Gust
kts
23/10:30pm 21.9 20.1 7.3 39 7.6 WNW 6 7 3 4 - - 0.0
23/10:00pm 23.9 22.0 7.5 35 8.6 W 7 11 4 6 - - 0.0
23/09:30pm 24.0 22.0 6.3 32 9.1 W 6 7 3 4 - - 0.0
23/09:00pm 25.2 23.2 6.9 31 9.6 W 7 9 4 5 - - 0.0
23/08:30pm 25.7 23.7 6.3 29 10.1 W 6 7 3 4 - - 0.0
23/08:00pm 27.8 25.9 6.6 26 11.2 W 6 11 3 6 - - 0.0
23/07:30pm 29.6 26.7 6.3 23 12.4 W 11 15 6 8 - - 0.0
23/07:00pm 30.8 27.5 6.6 22 13.0 W 13 19 7 10 - - 0.0
23/06:30pm 31.4 28.0 5.8 20 13.7 W 13 19 7 10 - - 0.0
23/06:00pm 32.1 29.0 5.6 19 14.2 W 11 19 6 10 - - 0.0
23/05:30pm 32.4 28.2 5.8 19 14.3 WNW 17 22 9 12 - - 0.0
23/05:00pm 32.5 27.8 5.9 19 14.3 WNW 20 28 11 15 - - 0.0
23/04:30pm 32.7 31.1 8.2 22 13.7 NNW 6 17 3 9 - - 0.0
23/04:00pm 32.4 29.7 7.3 21 13.8 W 11 20 6 11 - - 0.0
23/03:30pm 32.8 30.9 8.9 23 13.5 S 9 20 5 11 - - 0.0
23/03:00pm 32.0 30.1 8.9 24 13.0 SW 9 19 5 10 - - 0.0
23/02:30pm 31.6 29.5 9.8 26 12.4 SW 11 19 6 10 - - 0.0
23/02:00pm 30.2 28.8 9.7 28 11.6 SW 7 13 4 7 - - 0.0
23/01:30pm 29.2 27.6 10.3 31 10.7 SSW 9 19 5 10 - - 0.0
23/01:00pm 27.4 25.4 10.2 34 9.7 SW 11 19 6 10 - - 0.0
23/12:30pm 26.1 24.9 10.3 37 8.8 SSW 7 15 4 8 - - 0.0
23/12:00pm 24.9 23.5 10.8 41 7.9 S 9 15 5 8 - - 0.0
23/11:30am 23.7 22.0 11.1 45 7.1 SSW 11 17 6 9 - - 0.0
23/11:00am 22.2 20.4 11.0 49 6.2 SSW 11 20 6 11 - - 0.0
23/10:30am 20.5 18.2 10.6 53 5.4 SSW 13 19 7 10 - - 0.0
23/10:00am 19.4 17.2 10.9 58 4.6 S 13 22 7 12 - - 0.0
23/09:30am 18.0 15.5 10.9 63 3.8 SSW 15 20 8 11 - - 0.0
23/09:00am 16.8 13.8 10.6 67 3.3 SSW 17 22 9 12 - - 0.0
23/08:30am 15.7 12.7 10.5 71 2.8 SSW 17 22 9 12 - - 0.0
23/08:00am 14.8 11.1 10.2 74 2.4 S 20 30 11 16 - - 0.0
23/07:30am 13.9 10.4 10.1 78 2.0 S 19 24 10 13 - - 0.0
23/07:00am 13.6 10.1 10.2 80 1.8 S 19 24 10 13 - - 0.0
23/06:30am 13.8 10.1 10.2 79 1.9 S 20 26 11 14 - - 0.0
23/06:00am 14.3 9.9 10.3 77 2.1 S 24 32 13 17 - - 0.0
23/05:30am 14.9 10.9 10.3 74 2.4 S 22 32 12 17 - - 0.0
23/05:00am 15.6 12.0 10.6 72 2.7 S 20 26 11 14 - - 0.0
23/04:30am 16.3 12.3 10.6 69 3.0 S 22 30 12 16 - - 0.0
23/04:00am 17.2 13.2 10.3 64 3.7 S 22 30 12 16 - - 0.0
23/03:30am 18.0 14.0 10.6 62 4.0 S 22 28 12 15 - - 0.0
23/03:00am 18.8 15.0 9.8 56 4.8 S 20 26 11 14 - - 0.0
23/02:30am 19.7 16.4 9.6 52 5.4 S 17 22 9 12 - - 0.0
23/02:00am 20.3 16.3 9.2 49 5.9 S 20 26 11 14 - - 0.0
23/01:30am 21.0 17.8 8.6 45 6.6 S 15 19 8 10 - - 0.0
23/01:00am 22.4 19.3 7.4 38 7.8 S 13 19 7 10 - - 0.0
23/12:30am 23.7 21.1 6.0 32 9.1 SSE 9 17 5 9 - - 0.0
23/12:00am 24.1 22.5 8.1 36 8.5 SSW 6 11 3 6 - - 0.0
 
Date/Time
EDT
Temp
°C
App
Temp
°C
Dew
Point
Rel
Hum
%
Delta-T
°C
Wind Press
QNH
hPa
Press
MSL
hPa
Rain
since 9 am
mm
Dir
 
Spd
km/h
Gust
km/h
Spd
kts
Gust
kts
22/11:30pm 24.7 23.3 5.5 29 9.8 SE 2 6 1 3 - - 0.0
22/11:00pm 26.8 24.5 5.7 26 11.0 ENE 7 9 4 5 - - 0.0
22/10:30pm 28.1 26.8 6.2 25 11.6 S 2 7 1 4 - - 0.0
22/10:00pm 27.9 26.3 8.7 30 10.6 SSW 7 11 4 6 - - 0.0
22/09:30pm 28.0 25.5 5.0 23 11.9 SSW 7 11 4 6 - - 0.0
22/09:00pm 28.9 26.8 3.7 20 12.8 SSE 4 6 2 3 - - 0.0
22/08:30pm 30.6 27.5 3.6 18 13.8 ESE 9 13 5 7 - - 0.0
22/08:00pm 32.2 28.3 3.2 16 14.9 SSE 13 22 7 12 - - 0.0
22/07:30pm 33.5 27.7 0.2 12 16.4 S 20 28 11 15 - - 0.0
22/07:00pm 34.9 30.3 -1.2 10 17.5 WSW 13 20 7 11 - - 0.0
22/06:30pm 36.4 33.1 -1.5 9 18.5 WSW 6 13 3 7 - - 0.0
22/06:00pm 37.1 32.1 -1.0 9 18.8 WSW 15 22 8 12 - - 0.0
22/05:30pm 37.7 31.8 -0.6 9 19.1 WSW 20 33 11 18 - - 0.0
22/05:00pm 36.1 28.2 -1.7 9 18.4 WNW 30 39 16 21 - - 0.0
22/04:30pm 37.0 31.0 -2.7 8 19.1 NNW 19 30 10 16 - - 0.0
22/04:00pm 38.0 34.3 -0.3 9 19.3 WNW 9 20 5 11 - - 0.0
22/03:30pm 36.5 33.0 1.3 11 18.0 NW 9 24 5 13 - - 0.0
22/03:00pm 37.7 30.9 0.9 10 18.8 NNW 26 35 14 19 - - 0.0
22/02:30pm 36.4 30.2 -0.1 10 18.2 NW 22 32 12 17 - - 0.0
22/02:00pm 37.1 30.5 1.8 11 18.2 NW 26 48 14 26 - - 0.0
22/01:30pm 35.9 29.5 3.2 13 17.2 NW 26 35 14 19 - - 0.0
22/01:00pm 35.4 30.3 3.9 14 16.7 N 20 28 11 15 - - 0.0
22/12:30pm 34.4 31.0 4.0 15 16.0 NNE 11 19 6 10 - - 0.0
22/12:00pm 33.8 30.3 5.4 17 15.3 NNE 13 20 7 11 - - 0.0
22/11:30am 32.4 28.4 5.1 18 14.5 NNE 15 19 8 10 - - 0.0
22/11:00am 32.1 28.0 7.7 22 13.5 NNE 19 28 10 15 - - 0.0
22/10:30am 31.0 26.1 6.8 22 13.1 N 22 30 12 16 - - 0.0
22/10:00am 30.0 24.6 7.8 25 12.2 NNE 26 33 14 18 - - 0.0
22/09:34am 28.1 22.4 8.4 29 10.8 N 28 46 15 25 - - 0.0
22/09:30am 28.2 22.5 8.5 29 10.8 N 28 37 15 20 - - 0.0
22/09:00am 26.2 22.0 8.2 32 9.7 NNE 20 28 11 15 - - 0.0
22/08:30am 26.0 22.7 8.0 32 9.7 NE 15 24 8 13 - - 0.0
22/08:00am 25.2 21.7 7.3 32 9.5 ENE 15 20 8 11 - - 0.0
22/07:30am 23.9 20.9 6.2 32 9.1 NE 11 17 6 9 - - 0.0
22/07:00am 23.6 20.2 6.0 32 9.0 E 13 19 7 10 - - 0.0
22/06:30am 23.4 20.8 6.2 33 8.8 ENE 9 13 5 7 - - 0.0
22/06:00am 23.3 20.7 6.1 33 8.8 E 9 15 5 8 - - 0.0
22/05:30am 22.9 20.3 6.2 34 8.5 NE 9 15 5 8 - - 0.0
22/05:00am 22.6 20.0 6.0 34 8.4 ENE 9 15 5 8 - - 0.0
22/04:30am 22.5 19.5 5.9 34 8.4 ENE 11 17 6 9 - - 0.0
22/04:00am 22.4 19.0 5.8 34 8.4 ENE 13 19 7 10 - - 0.0
22/03:30am 22.4 18.9 5.4 33 8.5 ENE 13 19 7 10 - - 0.0
22/03:00am 22.6 19.1 5.5 33 8.6 ENE 13 19 7 10 - - 0.0
22/02:30am 22.9 19.4 5.3 32 8.8 ENE 13 19 7 10 - - 0.0
22/02:00am 23.4 19.9 5.3 31 9.1 ENE 13 19 7 10 - - 0.0
22/01:30am 24.0 20.0 4.9 29 9.6 ENE 15 22 8 12 - - 0.0
22/01:00am 24.6 20.6 4.9 28 9.9 ENE 15 24 8 13 - - 0.0
22/12:30am 25.2 21.2 4.9 27 10.3 ENE 15 20 8 11 - - 0.0
22/12:00am 25.3 21.3 5.0 27 10.3 ENE 15 22 8 12 - - 0.0
 
Date/Time
EDT
Temp
°C
App
Temp
°C
Dew
Point
Rel
Hum
%
Delta-T
°C
Wind Press
QNH
hPa
Press
MSL
hPa
Rain
since 9 am
mm
Dir
 
Spd
km/h
Gust
km/h
Spd
kts
Gust
kts
21/11:30pm 25.6 21.9 4.7 26 10.6 E 13 24 7 13 - - 0.0
21/11:00pm 25.8 21.8 4.9 26 10.6 E 15 24 8 13 - - 0.0
21/10:30pm 25.7 22.1 4.8 26 10.6 E 13 22 7 12 - - 0.0
21/10:00pm 26.1 22.4 4.6 25 10.9 E 13 19 7 10 - - 0.0
21/09:30pm 27.2 23.9 4.3 23 11.6 E 11 20 6 11 - - 0.0
21/09:00pm 28.0 24.5 3.7 21 12.3 E 11 19 6 10 - - 0.0
21/08:30pm 29.0 25.3 2.3 18 13.2 E 11 20 6 11 - - 0.0
21/08:00pm 29.7 26.4 0.3 15 14.1 E 7 11 4 6 - - 0.0
21/07:30pm 31.1 27.7 -0.5 13 15.1 ESE 7 11 4 6 - - 0.0
21/07:00pm 33.1 29.4 -0.1 12 16.2 ESE 9 15 5 8 - - 0.0
21/06:30pm 33.9 29.7 -0.7 11 16.8 SE 11 22 6 12 - - 0.0
21/06:00pm 34.5 30.4 -0.2 11 17.1 ESE 11 19 6 10 - - 0.0
21/05:30pm 34.8 31.3 -1.3 10 17.5 SE 7 19 4 10 - - 0.0
21/05:00pm 34.9 31.6 -1.2 10 17.5 SSW 6 15 3 8 - - 0.0
21/04:30pm 35.2 31.6 0.3 11 17.4 NE 9 15 5 8 - - 0.0
21/04:00pm 34.6 30.9 -0.1 11 17.1 N 9 15 5 8 - - 0.0
21/03:30pm 34.2 30.2 0.8 12 16.7 NE 11 15 6 8 - - 0.0
21/03:00pm 33.7 30.6 1.5 13 16.2 NE 7 20 4 11 - - 0.0
21/02:30pm 33.3 29.6 2.2 14 15.8 E 11 20 6 11 - - 0.0
21/02:00pm 31.8 28.6 2.9 16 14.7 E 9 19 5 10 - - 0.0
21/01:30pm 30.4 27.1 2.6 17 14.0 NNE 9 20 5 11 - - 0.0
21/01:00pm 30.6 27.5 3.6 18 13.8 ENE 9 15 5 8 - - 0.0
21/12:30pm 29.6 26.8 5.0 21 12.8 NE 9 17 5 9 - - 0.0
21/12:00pm 28.3 25.5 7.0 26 11.4 ENE 11 19 6 10 - - 0.0
21/11:30am 27.4 24.8 7.8 29 10.6 ENE 11 19 6 10 - - 0.0
21/11:00am 24.9 22.4 8.0 34 9.0 E 11 17 6 9 - - 0.0
21/10:30am 22.9 20.2 7.4 37 8.1 E 11 15 6 8 - - 0.0
21/10:00am 20.9 18.1 6.8 40 7.2 E 11 19 6 10 - - 0.0
21/09:30am 19.2 15.9 6.3 43 6.4 E 13 19 7 10 - - 0.0
21/09:00am 16.9 13.5 5.8 48 5.4 E 13 19 7 10 - - 0.0
21/08:30am 14.4 10.2 5.5 55 4.2 E 17 24 9 13 - - 0.0
21/08:00am 12.7 7.9 4.9 59 3.6 E 19 28 10 15 - - 0.0
21/07:30am 11.4 7.3 4.2 61 3.2 E 15 20 8 11 - - 0.0
21/07:00am 11.1 6.9 3.9 61 3.2 E 15 24 8 13 - - 0.0
21/06:30am 11.5 7.3 3.8 59 3.4 E 15 20 8 11 - - 0.0
21/06:00am 12.1 7.9 3.9 57 3.7 E 15 26 8 14 - - 0.0
21/05:30am 12.5 7.8 3.2 53 4.1 E 17 26 9 14 - - 0.0
21/05:00am 12.6 7.8 2.5 50 4.4 E 17 24 9 13 - - 0.0
21/04:30am 13.2 7.9 1.8 46 5.0 E 19 26 10 14 - - 0.0
21/04:00am 13.7 8.8 2.0 45 5.1 E 17 24 9 13 - - 0.0
21/03:30am 14.5 9.6 1.8 42 5.6 ESE 17 22 9 12 - - 0.0
21/03:00am 15.2 10.6 1.4 39 6.0 ESE 15 20 8 11 - - 0.0
21/02:30am 16.0 11.3 1.0 36 6.6 ESE 15 24 8 13 - - 0.0
21/02:00am 16.6 11.9 0.7 34 7.0 ESE 15 20 8 11 - - 0.0
21/01:30am 17.0 12.6 0.2 32 7.3 E 13 19 7 10 - - 0.0
21/01:00am 17.6 13.1 -0.6 29 7.8 ESE 13 22 7 12 - - 0.0
21/12:30am 17.5 13.2 -1.7 27 8.0 SE 11 17 6 9 - - 0.0
21/12:00am 18.4 13.7 -2.0 25 8.6 SE 13 19 7 10 - - 0.0
 
Date/Time
EDT
Temp
°C
App
Temp
°C
Dew
Point
Rel
Hum
%
Delta-T
°C
Wind Press
QNH
hPa
Press
MSL
hPa
Rain
since 9 am
mm
Dir
 
Spd
km/h
Gust
km/h
Spd
kts
Gust
kts
20/11:30pm 19.3 14.6 -1.7 24 9.0 SE 13 19 7 10 - - 0.0
20/11:00pm 20.5 15.8 -1.9 22 9.6 SE 13 17 7 9 - - 0.0

Other Formats:

Comma delimited format used in spreadsheet applications
http://www.bom.gov.au/fwo/IDV60801/IDV60801.95831.axf

JavaScript Object Notation format (JSON) in row-major order
http://www.bom.gov.au/fwo/IDV60801/IDV60801.95831.json